M I D A S
Marine Information and Data Acquisition System
Tripno 2156 of the Zeeleeuw from 2011-08-02 06:40:21 to 2011-08-02 15:04:15
Back to CruiseResearch ActivitiesStationsMapUnderway DataData graphs

EquipmentUnitsComment
TimeDGPSUTC
LatitudeDGPSDM.mWGS84
LongitudeDGPSDM.mWGS84
TemperatureSBE03/SBE38deg celciusITS90
ConductivitySBE21S/mITS90
SalinitySBE21 Practical Salinity Units
ChlorophylAChelsea fluorimeterg/lCalibrated in Aceton
Missing or incorrect values are displayed as -999
Sea surface data collected by the RV Zeeleeuw from 2011-08-02 06:20:20 to 2011-08-02 16:17:02
Time Latitude Longitude Temperature Conductivity Salinity ChlorophylA
2011-08-02 06:21:24 51°13.637 2°56.021 21.0625 -999 -999 -999
2011-08-02 06:22:24 51°13.637 2°56.02 21.0628 -999 -999 -999
2011-08-02 06:23:23 51°13.637 2°56.02 21.0653 -999 -999 -999
2011-08-02 06:24:23 51°13.636 2°56.02 21.0594 -999 -999 -999
2011-08-02 06:25:23 51°13.636 2°56.02 21.062 -999 -999 -999
2011-08-02 06:26:23 51°13.636 2°56.019 21.0657 -999 -999 -999
2011-08-02 06:27:23 51°13.636 2°56.019 21.07 -999 -999 -999
2011-08-02 06:28:23 51°13.636 2°56.019 21.0689 -999 -999 -999
2011-08-02 06:29:23 51°13.637 2°56.019 21.0722 -999 -999 -999
2011-08-02 06:30:23 51°13.635 2°56.019 21.0787 -999 -999 -999
2011-08-02 06:31:23 51°13.634 2°56.019 21.0814 -999 -999 -999
2011-08-02 06:32:22 51°13.634 2°56.02 21.0858 -999 -999 -999
2011-08-02 06:33:23 51°13.634 2°56.02 21.089 -999 -999 -999
2011-08-02 06:34:23 51°13.635 2°56.019 21.0936 -999 -999 -999
2011-08-02 06:35:23 51°13.635 2°56.019 21.0978 -999 -999 -999
2011-08-02 06:36:23 51°13.636 2°56.019 21.1045 -999 -999 -999
2011-08-02 06:37:23 51°13.636 2°56.019 21.1107 -999 -999 -999
2011-08-02 06:38:23 51°13.636 2°56.019 21.1196 -999 -999 -999
2011-08-02 06:39:22 51°13.636 2°56.018 21.1213 -999 -999 -999
2011-08-02 06:40:23 51°13.636 2°56.018 21.1311 -999 -999 -999
2011-08-02 06:41:23 51°13.635 2°56.017 21.132 -999 -999 -999
2011-08-02 06:42:23 51°13.636 2°56.015 21.1443 -999 -999 -999
2011-08-02 06:43:23 51°13.635 2°56.013 21.1428 -999 -999 -999
2011-08-02 06:44:23 51°13.632 2°56.015 21.1601 -999 -999 -999
2011-08-02 06:45:22 51°13.611 2°56.043 21.1664 -999 -999 -999
2011-08-02 06:46:23 51°13.574 2°56.095 21.1565 -999 -999 -999
2011-08-02 06:47:23 51°13.548 2°56.142 21.1735 -999 -999 -999
2011-08-02 06:48:23 51°13.536 2°56.19 21.2075 -999 -999 -999
2011-08-02 06:49:24 51°13.545 2°56.237 21.1716 -999 -999 -999
2011-08-02 06:50:23 51°13.545 2°56.241 21.2251 -999 -999 -999
2011-08-02 06:51:26 51°13.548 2°56.243 21.1977 -999 -999 -999
2011-08-02 06:52:26 51°13.546 2°56.24 21.1877 -999 -999 -999
2011-08-02 06:53:27 51°13.522 2°56.254 21.2444 -999 -999 -999
2011-08-02 06:54:26 51°13.545 2°56.19 21.2191 -999 -999 -999
2011-08-02 06:55:24 51°13.587 2°56.055 21.1905 -999 -999 -999
2011-08-02 06:56:23 51°13.652 2°55.907 21.2152 -999 -999 -999
2011-08-02 06:57:23 51°13.725 2°55.749 21.1654 -999 -999 -999
2011-08-02 06:58:25 51°13.83 2°55.623 21.2013 -999 -999 -999
2011-08-02 06:59:25 51°13.954 2°55.541 21.2705 -999 -999 -999
2011-08-02 07:00:25 51°14.085 2°55.454 21.2944 -999 -999 -999
2011-08-02 07:01:24 51°14.213 2°55.347 21.2662 -999 -999 -999
2011-08-02 07:02:26 51°14.359 2°55.212 21.2975 -999 -999 -999
2011-08-02 07:03:24 51°14.505 2°55.055 21.267 -999 -999 -999
2011-08-02 07:04:22 51°14.654 2°54.846 21.2888 -999 -999 -999
2011-08-02 07:05:22 51°14.825 2°54.65 21.3235 -999 -999 -999
2011-08-02 07:06:22 51°14.989 2°54.435 21.2535 -999 -999 -999
2011-08-02 07:07:23 51°15.147 2°54.204 21.2477 -999 -999 -999
2011-08-02 07:08:22 51°15.313 2°54.014 21.3273 -999 -999 -999
2011-08-02 07:09:23 51°15.479 2°53.799 21.3134 -999 -999 -999
2011-08-02 07:10:22 51°15.652 2°53.615 21.3293 -999 -999 -999
2011-08-02 07:11:22 51°15.825 2°53.419 21.294 -999 -999 -999
2011-08-02 07:12:22 51°16.011 2°53.26 21.3171 -999 -999 -999
2011-08-02 07:13:22 51°16.19 2°53.084 21.3033 -999 -999 -999
2011-08-02 07:14:23 51°16.381 2°52.935 21.3331 -999 -999 -999
2011-08-02 07:15:22 51°16.567 2°52.793 21.2968 -999 -999 -999
2011-08-02 07:16:23 51°16.764 2°52.678 21.3718 -999 -999 -999
2011-08-02 07:17:22 51°16.954 2°52.586 21.3354 -999 -999 -999
2011-08-02 07:18:22 51°17.152 2°52.544 21.3444 -999 -999 -999
2011-08-02 07:19:22 51°17.352 2°52.493 21.3038 -999 -999 -999
2011-08-02 07:20:22 51°17.551 2°52.424 21.298 -999 -999 -999
2011-08-02 07:21:22 51°17.746 2°52.329 21.3189 -999 -999 -999
2011-08-02 07:22:22 51°17.942 2°52.244 21.3356 -999 -999 -999
2011-08-02 07:23:22 51°18.142 2°52.172 21.3525 -999 -999 -999
2011-08-02 07:24:22 51°18.342 2°52.118 21.3733 -999 -999 -999
2011-08-02 07:25:22 51°18.544 2°52.067 21.4013 -999 -999 -999
2011-08-02 07:26:22 51°18.743 2°51.986 21.4217 -999 -999 -999
2011-08-02 07:27:22 51°18.938 2°51.876 21.4392 -999 -999 -999
2011-08-02 07:28:22 51°19.137 2°51.783 21.4573 -999 -999 -999
2011-08-02 07:29:22 51°19.333 2°51.669 21.4893 -999 -999 -999
2011-08-02 07:30:22 51°19.531 2°51.565 21.5041 -999 -999 -999
2011-08-02 07:31:22 51°19.73 2°51.481 21.5385 -999 -999 -999
2011-08-02 07:32:22 51°19.927 2°51.386 21.5618 -999 -999 -999
2011-08-02 07:33:22 51°20.125 2°51.284 21.588 -999 -999 -999
2011-08-02 07:34:22 51°20.323 2°51.181 21.6022 -999 -999 -999
2011-08-02 07:35:22 51°20.524 2°51.089 21.6413 -999 -999 -999
2011-08-02 07:36:22 51°20.721 2°50.982 21.6648 -999 -999 -999
2011-08-02 07:37:22 51°20.922 2°50.899 21.697 -999 -999 -999
2011-08-02 07:38:22 51°21.122 2°50.792 21.7185 -999 -999 -999
2011-08-02 07:39:22 51°21.324 2°50.694 21.7586 -999 -999 -999
2011-08-02 07:40:22 51°21.526 2°50.596 21.7767 -999 -999 -999
2011-08-02 07:41:22 51°21.728 2°50.499 21.8151 -999 -999 -999
2011-08-02 07:42:22 51°21.928 2°50.396 21.8226 -999 -999 -999
2011-08-02 07:43:22 51°22.13 2°50.301 21.8705 -999 -999 -999
2011-08-02 07:44:22 51°22.332 2°50.199 21.8764 -999 -999 -999
2011-08-02 07:45:22 51°22.536 2°50.109 21.9342 -999 -999 -999
2011-08-02 07:46:22 51°22.736 2°49.998 21.9456 -999 -999 -999
2011-08-02 07:47:23 51°22.94 2°49.901 21.9837 -999 -999 -999
2011-08-02 07:48:22 51°23.14 2°49.826 22.0172 -999 -999 -999
2011-08-02 07:49:22 51°23.339 2°49.717 22.0285 -999 -999 -999
2011-08-02 07:50:22 51°23.54 2°49.625 22.0688 -999 -999 -999
2011-08-02 07:51:22 51°23.741 2°49.538 22.0891 -999 -999 -999
2011-08-02 07:52:22 51°23.94 2°49.44 22.12 -999 -999 -999
2011-08-02 07:53:22 51°24.14 2°49.34 22.1362 -999 -999 -999
2011-08-02 07:54:23 51°24.341 2°49.229 22.1706 -999 -999 -999
2011-08-02 07:55:22 51°24.531 2°49.096 22.2076 -999 -999 -999
2011-08-02 07:56:23 51°24.724 2°48.949 22.2307 -999 -999 -999
2011-08-02 07:57:22 51°24.914 2°48.82 22.2515 -999 -999 -999
2011-08-02 07:58:23 51°25.109 2°48.674 22.283 -999 -999 -999
2011-08-02 07:59:22 51°25.305 2°48.576 22.316 -999 -999 -999
2011-08-02 08:00:22 51°25.507 2°48.515 22.3324 -999 -999 -999
2011-08-02 08:01:22 51°25.706 2°48.48 22.3441 -999 -999 -999
2011-08-02 08:02:22 51°25.876 2°48.447 22.4015 -999 -999 -999
2011-08-02 08:03:22 51°25.969 2°48.491 22.4419 -999 -999 -999
2011-08-02 08:04:22 51°25.999 2°48.537 22.4555 -999 -999 -999
2011-08-02 08:05:23 51°25.998 2°48.543 22.499 -999 -999 -999
2011-08-02 08:06:22 51°25.992 2°48.535 22.5267 -999 -999 -999
2011-08-02 08:07:22 51°25.985 2°48.519 22.5523 -999 -999 -999
2011-08-02 08:08:22 51°25.978 2°48.497 22.5848 -999 -999 -999
2011-08-02 08:09:22 51°25.972 2°48.471 22.6037 -999 -999 -999
2011-08-02 08:10:22 51°25.964 2°48.443 22.6212 -999 -999 -999
2011-08-02 08:11:22 51°25.957 2°48.412 22.6517 -999 -999 -999
2011-08-02 08:12:23 51°25.949 2°48.379 22.6786 -999 -999 -999
2011-08-02 08:13:22 51°25.942 2°48.348 22.7121 -999 -999 -999
2011-08-02 08:14:22 51°25.96 2°48.399 22.7267 -999 -999 -999
2011-08-02 08:15:22 51°26.02 2°48.498 22.7641 -999 -999 -999
2011-08-02 08:16:22 51°26.058 2°48.509 22.7666 -999 -999 -999
2011-08-02 08:17:22 51°26.067 2°48.487 22.8103 -999 -999 -999
2011-08-02 08:18:22 51°26.07 2°48.461 22.8354 -999 -999 -999
2011-08-02 08:19:22 51°26.069 2°48.432 22.8642 -999 -999 -999
2011-08-02 08:20:22 51°26.066 2°48.4 22.877 -999 -999 -999
2011-08-02 08:21:23 51°26.06 2°48.364 22.9108 -999 -999 -999
2011-08-02 08:22:22 51°26.054 2°48.327 22.9374 -999 -999 -999
2011-08-02 08:23:23 51°26.046 2°48.288 22.957 -999 -999 -999
2011-08-02 08:24:22 51°26.037 2°48.25 22.9903 -999 -999 -999
2011-08-02 08:25:23 51°26.027 2°48.209 23.0142 -999 -999 -999
2011-08-02 08:26:22 51°26.026 2°48.182 23.0424 -999 -999 -999
2011-08-02 08:27:22 51°26.1 2°48.278 22.99 -999 -999 -999
2011-08-02 08:28:22 51°26.159 2°48.481 23.0479 -999 -999 -999
2011-08-02 08:29:22 51°26.156 2°48.712 23.1179 -999 -999 -999
2011-08-02 08:30:23 51°26.145 2°48.883 23.1105 -999 -999 -999
2011-08-02 08:31:22 51°26.11 2°48.889 23.1458 -999 -999 -999
2011-08-02 08:32:23 51°26.094 2°48.847 23.1781 -999 -999 -999
2011-08-02 08:33:23 51°26.08 2°48.803 23.1949 -999 -999 -999
2011-08-02 08:34:23 51°26.066 2°48.758 23.2247 -999 -999 -999
2011-08-02 08:35:22 51°26.052 2°48.714 23.2432 -999 -999 -999
2011-08-02 08:36:23 51°26.036 2°48.667 23.2755 -999 -999 -999
2011-08-02 08:37:22 51°26.007 2°48.613 23.297 -999 -999 -999
2011-08-02 08:38:22 51°25.973 2°48.561 23.317 -999 -999 -999
2011-08-02 08:39:23 51°25.946 2°48.508 23.3352 -999 -999 -999
2011-08-02 08:40:23 51°25.921 2°48.454 23.3472 -999 -999 -999
2011-08-02 08:41:23 51°25.887 2°48.399 23.4226 -999 -999 -999
2011-08-02 08:42:22 51°25.833 2°48.438 23.5105 -999 -999 -999
2011-08-02 08:43:22 51°25.896 2°48.605 23.4687 -999 -999 -999
2011-08-02 08:44:22 51°26.018 2°48.79 23.404 -999 -999 -999
2011-08-02 08:45:22 51°26.163 2°48.895 23.498 -999 -999 -999
2011-08-02 08:46:22 51°26.346 2°48.883 23.4597 -999 -999 -999
2011-08-02 08:47:22 51°26.41 2°48.935 23.4964 -999 -999 -999
2011-08-02 08:48:23 51°26.412 2°48.954 23.5201 -999 -999 -999
2011-08-02 08:49:22 51°26.413 2°48.959 23.5424 -999 -999 -999
2011-08-02 08:50:23 51°26.417 2°48.959 23.5599 -999 -999 -999
2011-08-02 08:51:23 51°26.415 2°48.96 23.5798 -999 -999 -999
2011-08-02 08:52:23 51°26.409 2°48.959 23.6029 -999 -999 -999
2011-08-02 08:53:22 51°26.401 2°48.952 23.6212 -999 -999 -999
2011-08-02 08:54:22 51°26.391 2°48.938 23.6447 -999 -999 -999
2011-08-02 08:55:22 51°26.387 2°48.927 23.6628 -999 -999 -999
2011-08-02 08:56:22 51°26.385 2°48.912 23.6807 -999 -999 -999
2011-08-02 08:57:22 51°26.381 2°48.905 23.7027 -999 -999 -999
2011-08-02 08:58:22 51°26.378 2°48.905 23.7232 -999 -999 -999
2011-08-02 08:59:23 51°26.386 2°48.897 23.7408 -999 -999 -999
2011-08-02 09:00:22 51°26.397 2°48.879 23.758 -999 -999 -999
2011-08-02 09:01:23 51°26.404 2°48.858 23.7777 -999 -999 -999
2011-08-02 09:02:22 51°26.404 2°48.835 23.7952 -999 -999 -999
2011-08-02 09:03:22 51°26.403 2°48.815 23.8132 -999 -999 -999
2011-08-02 09:04:22 51°26.403 2°48.801 23.8329 -999 -999 -999
2011-08-02 09:05:22 51°26.405 2°48.79 23.8486 -999 -999 -999
2011-08-02 09:06:22 51°26.41 2°48.78 23.8684 -999 -999 -999
2011-08-02 09:07:22 51°26.419 2°48.771 23.8849 -999 -999 -999
2011-08-02 09:08:23 51°26.429 2°48.764 23.9013 -999 -999 -999
2011-08-02 09:09:22 51°26.441 2°48.759 23.9156 -999 -999 -999
2011-08-02 09:10:23 51°26.457 2°48.755 23.935 -999 -999 -999
2011-08-02 09:11:22 51°26.474 2°48.747 23.9524 -999 -999 -999
2011-08-02 09:12:23 51°26.492 2°48.735 23.9662 -999 -999 -999
2011-08-02 09:13:22 51°26.506 2°48.718 23.9832 -999 -999 -999
2011-08-02 09:14:22 51°26.511 2°48.708 23.9996 -999 -999 -999
2011-08-02 09:15:23 51°26.505 2°48.708 24.0138 -999 -999 -999
2011-08-02 09:16:22 51°26.495 2°48.704 24.0313 -999 -999 -999
2011-08-02 09:17:23 51°26.482 2°48.691 24.0466 -999 -999 -999
2011-08-02 09:18:22 51°26.467 2°48.674 24.0613 -999 -999 -999
2011-08-02 09:19:23 51°26.452 2°48.652 24.0769 -999 -999 -999
2011-08-02 09:20:22 51°26.452 2°48.648 24.0911 -999 -999 -999
2011-08-02 09:21:22 51°26.454 2°48.646 24.106 -999 -999 -999
2011-08-02 09:22:22 51°26.455 2°48.645 24.1215 -999 -999 -999
2011-08-02 09:23:22 51°26.455 2°48.646 24.1331 -999 -999 -999
2011-08-02 09:24:22 51°26.454 2°48.645 24.1469 -999 -999 -999
2011-08-02 09:25:22 51°26.453 2°48.647 24.1582 -999 -999 -999
2011-08-02 09:26:23 51°26.452 2°48.646 24.1728 -999 -999 -999
2011-08-02 09:27:22 51°26.452 2°48.647 24.1856 -999 -999 -999
2011-08-02 09:28:22 51°26.453 2°48.646 24.1997 -999 -999 -999
2011-08-02 09:29:22 51°26.454 2°48.645 24.2109 -999 -999 -999
2011-08-02 09:30:22 51°26.456 2°48.644 24.2243 -999 -999 -999
2011-08-02 09:31:22 51°26.458 2°48.642 24.2359 -999 -999 -999
2011-08-02 09:32:22 51°26.459 2°48.641 24.2514 -999 -999 -999
2011-08-02 09:33:22 51°26.46 2°48.641 24.2621 -999 -999 -999
2011-08-02 09:34:22 51°26.459 2°48.641 24.2736 -999 -999 -999
2011-08-02 09:35:23 51°26.459 2°48.641 24.2862 -999 -999 -999
2011-08-02 09:36:22 51°26.458 2°48.641 24.2973 -999 -999 -999
2011-08-02 09:37:23 51°26.459 2°48.641 24.3117 -999 -999 -999
2011-08-02 09:38:22 51°26.46 2°48.641 24.3237 -999 -999 -999
2011-08-02 09:39:23 51°26.459 2°48.642 24.3319 -999 -999 -999
2011-08-02 09:40:22 51°26.459 2°48.642 24.3471 -999 -999 -999
2011-08-02 09:41:22 51°26.459 2°48.643 24.3534 -999 -999 -999
2011-08-02 09:42:22 51°26.46 2°48.643 24.3662 -999 -999 -999
2011-08-02 09:43:22 51°26.459 2°48.643 24.3806 -999 -999 -999
2011-08-02 09:44:23 51°26.459 2°48.643 24.3898 -999 -999 -999
2011-08-02 09:45:22 51°26.459 2°48.643 24.4007 -999 -999 -999
2011-08-02 09:46:22 51°26.459 2°48.642 24.4077 -999 -999 -999
2011-08-02 09:47:22 51°26.46 2°48.642 24.4191 -999 -999 -999
2011-08-02 09:48:22 51°26.459 2°48.642 24.4299 -999 -999 -999
2011-08-02 09:49:23 51°26.459 2°48.642 24.4405 -999 -999 -999
2011-08-02 09:50:22 51°26.459 2°48.642 24.4513 -999 -999 -999
2011-08-02 09:51:22 51°26.458 2°48.642 24.458 -999 -999 -999
2011-08-02 09:52:23 51°26.458 2°48.643 24.4713 -999 -999 -999
2011-08-02 09:53:22 51°26.457 2°48.643 24.4796 -999 -999 -999
2011-08-02 09:54:22 51°26.459 2°48.642 24.4911 -999 -999 -999
2011-08-02 09:55:23 51°26.459 2°48.642 24.4966 -999 -999 -999
2011-08-02 09:56:22 51°26.459 2°48.642 24.5079 -999 -999 -999
2011-08-02 09:57:22 51°26.459 2°48.642 24.5176 -999 -999 -999
2011-08-02 09:58:22 51°26.459 2°48.643 24.5294 -999 -999 -999
2011-08-02 09:59:22 51°26.458 2°48.642 24.5377 -999 -999 -999
2011-08-02 10:00:22 51°26.458 2°48.643 24.5503 -999 -999 -999
2011-08-02 10:01:22 51°26.458 2°48.643 24.5552 -999 -999 -999
2011-08-02 10:02:22 51°26.458 2°48.642 24.566 -999 -999 -999
2011-08-02 10:03:22 51°26.459 2°48.642 24.5782 -999 -999 -999
2011-08-02 10:04:23 51°26.459 2°48.641 24.582 -999 -999 -999
2011-08-02 10:05:22 51°26.458 2°48.642 24.5992 -999 -999 -999
2011-08-02 10:06:22 51°26.457 2°48.642 24.602 -999 -999 -999
2011-08-02 10:07:22 51°26.457 2°48.643 24.6064 -999 -999 -999
2011-08-02 10:08:22 51°26.456 2°48.644 24.619 -999 -999 -999
2011-08-02 10:09:22 51°26.456 2°48.643 24.6234 -999 -999 -999
2011-08-02 10:10:23 51°26.457 2°48.643 24.6299 -999 -999 -999
2011-08-02 10:11:22 51°26.457 2°48.642 24.6411 -999 -999 -999
2011-08-02 10:12:22 51°26.458 2°48.643 24.6489 -999 -999 -999
2011-08-02 10:13:23 51°26.457 2°48.643 24.6527 -999 -999 -999
2011-08-02 10:14:22 51°26.457 2°48.643 24.6664 -999 -999 -999
2011-08-02 10:15:22 51°26.457 2°48.644 24.6699 -999 -999 -999
2011-08-02 10:16:22 51°26.456 2°48.644 24.68 -999 -999 -999
2011-08-02 10:17:22 51°26.456 2°48.644 24.6779 -999 -999 -999
2011-08-02 10:18:22 51°26.458 2°48.644 24.6907 -999 -999 -999
2011-08-02 10:19:22 51°26.464 2°48.652 24.6983 -999 -999 -999
2011-08-02 10:20:22 51°26.467 2°48.663 24.7019 -999 -999 -999
2011-08-02 10:21:22 51°26.468 2°48.677 24.7127 -999 -999 -999
2011-08-02 10:22:23 51°26.465 2°48.675 24.7206 -999 -999 -999
2011-08-02 10:23:22 51°26.458 2°48.661 24.7337 -999 -999 -999
2011-08-02 10:24:22 51°26.454 2°48.655 24.7609 -999 -999 -999
2011-08-02 10:25:22 51°26.436 2°48.712 24.7687 -999 -999 -999
2011-08-02 10:26:22 51°26.349 2°48.744 24.7726 -999 -999 -999
2011-08-02 10:27:22 51°26.229 2°48.627 24.7923 -999 -999 -999
2011-08-02 10:28:22 51°26.117 2°48.365 24.7915 -999 -999 -999
2011-08-02 10:29:22 51°25.998 2°48.039 24.7822 -999 -999 -999
2011-08-02 10:30:22 51°25.874 2°47.71 24.8345 -999 -999 -999
2011-08-02 10:31:22 51°25.74 2°47.392 24.8328 -999 -999 -999
2011-08-02 10:32:22 51°25.613 2°47.066 24.8554 -999 -999 -999
2011-08-02 10:33:22 51°25.481 2°46.743 24.8462 -999 -999 -999
2011-08-02 10:34:22 51°25.344 2°46.427 24.8539 -999 -999 -999
2011-08-02 10:35:22 51°25.204 2°46.113 24.864 -999 -999 -999
2011-08-02 10:36:22 51°25.073 2°45.79 24.8679 -999 -999 -999
2011-08-02 10:37:22 51°24.941 2°45.468 24.8819 -999 -999 -999
2011-08-02 10:38:22 51°24.802 2°45.15 24.8978 -999 -999 -999
2011-08-02 10:39:22 51°24.672 2°44.824 24.8871 -999 -999 -999
2011-08-02 10:40:22 51°24.532 2°44.507 24.9048 -999 -999 -999
2011-08-02 10:41:22 51°24.402 2°44.171 24.9115 -999 -999 -999
2011-08-02 10:42:22 51°24.264 2°43.845 24.9518 -999 -999 -999
2011-08-02 10:43:22 51°24.133 2°43.51 24.9301 -999 -999 -999
2011-08-02 10:44:22 51°23.995 2°43.185 24.9341 -999 -999 -999
2011-08-02 10:45:22 51°23.867 2°42.851 24.9781 -999 -999 -999
2011-08-02 10:46:22 51°23.786 2°42.489 24.971 -999 -999 -999
2011-08-02 10:47:22 51°23.709 2°42.123 25.0011 -999 -999 -999
2011-08-02 10:48:22 51°23.678 2°41.752 24.9843 -999 -999 -999
2011-08-02 10:49:22 51°23.639 2°41.382 25.0041 -999 -999 -999
2011-08-02 10:50:22 51°23.609 2°41.012 25.011 -999 -999 -999
2011-08-02 10:51:22 51°23.582 2°40.642 24.9984 -999 -999 -999
2011-08-02 10:52:22 51°23.513 2°40.29 24.9572 -999 -999 -999
2011-08-02 10:53:22 51°23.312 2°40.15 25.0283 -999 -999 -999
2011-08-02 10:54:22 51°23.083 2°40.157 25.0889 -999 -999 -999
2011-08-02 10:55:22 51°22.854 2°40.145 25.1053 -999 -999 -999
2011-08-02 10:56:22 51°22.626 2°40.141 25.1726 -999 -999 -999
2011-08-02 10:57:22 51°22.398 2°40.074 25.1116 -999 -999 -999
2011-08-02 10:58:22 51°22.168 2°40.008 25.1148 -999 -999 -999
2011-08-02 10:59:22 51°21.939 2°39.929 25.1445 -999 -999 -999
2011-08-02 11:00:22 51°21.708 2°39.863 25.1565 -999 -999 -999
2011-08-02 11:01:22 51°21.483 2°39.757 25.1371 -999 -999 -999
2011-08-02 11:02:22 51°21.314 2°39.506 25.1418 -999 -999 -999
2011-08-02 11:03:22 51°21.241 2°39.15 25.1599 -999 -999 -999
2011-08-02 11:04:22 51°21.171 2°38.79 25.1808 -999 -999 -999
2011-08-02 11:05:22 51°21.115 2°38.427 25.1722 -999 -999 -999
2011-08-02 11:06:22 51°21.048 2°38.068 25.1723 -999 -999 -999
2011-08-02 11:07:22 51°20.988 2°37.709 25.1911 -999 -999 -999
2011-08-02 11:08:22 51°20.935 2°37.346 25.1866 -999 -999 -999
2011-08-02 11:09:22 51°20.87 2°36.987 25.215 -999 -999 -999
2011-08-02 11:10:22 51°20.812 2°36.625 25.2073 -999 -999 -999
2011-08-02 11:11:22 51°20.757 2°36.263 25.201 -999 -999 -999
2011-08-02 11:12:22 51°20.697 2°35.903 25.1982 -999 -999 -999
2011-08-02 11:13:22 51°20.638 2°35.542 25.2153 -999 -999 -999
2011-08-02 11:14:22 51°20.581 2°35.182 25.2106 -999 -999 -999
2011-08-02 11:15:22 51°20.518 2°34.824 25.2387 -999 -999 -999
2011-08-02 11:16:22 51°20.463 2°34.463 25.2187 -999 -999 -999
2011-08-02 11:17:22 51°20.398 2°34.103 25.2447 -999 -999 -999
2011-08-02 11:18:22 51°20.344 2°33.74 25.2313 -999 -999 -999
2011-08-02 11:19:22 51°20.273 2°33.381 25.2378 -999 -999 -999
2011-08-02 11:20:22 51°20.214 2°33.021 25.2405 -999 -999 -999
2011-08-02 11:21:22 51°20.142 2°32.665 25.2603 -999 -999 -999
2011-08-02 11:22:22 51°20.084 2°32.304 25.2431 -999 -999 -999
2011-08-02 11:23:22 51°20.013 2°31.949 25.2541 -999 -999 -999
2011-08-02 11:24:22 51°19.993 2°31.588 25.2594 -999 -999 -999
2011-08-02 11:25:22 51°20.005 2°31.224 25.294 -999 -999 -999
2011-08-02 11:26:22 51°20.02 2°30.862 25.2685 -999 -999 -999
2011-08-02 11:27:22 51°20.061 2°30.521 25.2845 -999 -999 -999
2011-08-02 11:28:22 51°20.121 2°30.192 25.2888 -999 -999 -999
2011-08-02 11:29:22 51°20.135 2°29.863 25.2603 -999 -999 -999
2011-08-02 11:30:22 51°20.064 2°29.745 25.2 -999 -999 -999
2011-08-02 11:31:22 51°20.007 2°29.787 25.2623 -999 -999 -999
2011-08-02 11:32:22 51°19.99 2°29.815 25.2437 -999 -999 -999
2011-08-02 11:33:22 51°19.98 2°29.817 25.2509 -999 -999 -999
2011-08-02 11:34:22 51°19.972 2°29.816 25.276 -999 -999 -999
2011-08-02 11:35:22 51°19.963 2°29.813 25.2755 -999 -999 -999
2011-08-02 11:36:22 51°19.953 2°29.808 25.2868 -999 -999 -999
2011-08-02 11:37:22 51°19.943 2°29.802 25.2893 -999 -999 -999
2011-08-02 11:38:22 51°19.933 2°29.797 25.304 -999 -999 -999
2011-08-02 11:39:22 51°19.923 2°29.791 25.309 -999 -999 -999
2011-08-02 11:40:22 51°19.913 2°29.785 25.3281 -999 -999 -999
2011-08-02 11:41:22 51°19.904 2°29.777 25.3357 -999 -999 -999
2011-08-02 11:42:22 51°19.896 2°29.768 25.3336 -999 -999 -999
2011-08-02 11:43:22 51°19.889 2°29.759 25.338 -999 -999 -999
2011-08-02 11:44:22 51°19.884 2°29.751 25.3487 -999 -999 -999
2011-08-02 11:45:23 51°19.879 2°29.744 25.369 -999 -999 -999
2011-08-02 11:46:22 51°19.875 2°29.739 25.3632 -999 -999 -999
2011-08-02 11:47:22 51°19.873 2°29.736 25.3876 -999 -999 -999
2011-08-02 11:48:22 51°19.869 2°29.735 25.3882 -999 -999 -999
2011-08-02 11:49:23 51°19.864 2°29.735 25.3936 -999 -999 -999
2011-08-02 11:50:22 51°19.857 2°29.736 25.4022 -999 -999 -999
2011-08-02 11:51:23 51°19.85 2°29.739 25.3863 -999 -999 -999
2011-08-02 11:52:22 51°19.842 2°29.743 25.4033 -999 -999 -999
2011-08-02 11:53:22 51°19.834 2°29.75 25.4122 -999 -999 -999
2011-08-02 11:54:22 51°19.826 2°29.759 25.4144 -999 -999 -999
2011-08-02 11:55:23 51°19.818 2°29.769 25.4326 -999 -999 -999
2011-08-02 11:56:23 51°19.81 2°29.781 25.4381 -999 -999 -999
2011-08-02 11:57:23 51°19.803 2°29.797 25.4325 -999 -999 -999
2011-08-02 11:58:23 51°19.796 2°29.813 25.4254 -999 -999 -999
2011-08-02 11:59:22 51°19.789 2°29.826 25.4491 -999 -999 -999
2011-08-02 12:00:23 51°19.782 2°29.842 25.4431 -999 -999 -999
2011-08-02 12:01:22 51°19.769 2°29.87 25.4341 -999 -999 -999
2011-08-02 12:02:22 51°19.772 2°29.97 25.4099 -999 -999 -999
2011-08-02 12:03:22 51°19.863 2°30.025 25.556 -999 -999 -999
2011-08-02 12:04:22 51°19.979 2°30.069 25.503 -999 -999 -999
2011-08-02 12:05:23 51°20.043 2°30.084 25.4792 -999 -999 -999
2011-08-02 12:06:22 51°20.054 2°30.075 25.5381 -999 -999 -999
2011-08-02 12:07:26 51°20.047 2°30.098 25.5081 -999 -999 -999
2011-08-02 12:08:24 51°20.037 2°30.114 25.5106 -999 -999 -999
2011-08-02 12:09:23 51°20.021 2°30.125 25.5428 -999 -999 -999
2011-08-02 12:10:22 51°20 2°30.123 25.5729 -999 -999 -999
2011-08-02 12:11:22 51°19.987 2°30.084 25.5602 -999 -999 -999
2011-08-02 12:12:22 51°19.988 2°30.012 25.533 -999 -999 -999
2011-08-02 12:13:22 51°19.986 2°29.984 25.5386 -999 -999 -999
2011-08-02 12:14:22 51°19.978 2°29.987 25.5803 -999 -999 -999
2011-08-02 12:15:22 51°19.969 2°29.989 25.548 -999 -999 -999
2011-08-02 12:16:23 51°19.961 2°29.99 25.5596 -999 -999 -999
2011-08-02 12:17:22 51°19.958 2°29.99 25.5724 -999 -999 -999
2011-08-02 12:18:23 51°19.957 2°29.992 25.5652 -999 -999 -999
2011-08-02 12:19:22 51°19.958 2°29.997 25.5771 -999 -999 -999
2011-08-02 12:20:22 51°19.961 2°30.004 25.5693 -999 -999 -999
2011-08-02 12:21:22 51°19.964 2°30.016 25.5694 -999 -999 -999
2011-08-02 12:22:23 51°19.969 2°30.032 25.5934 -999 -999 -999
2011-08-02 12:23:23 51°19.976 2°30.049 25.585 -999 -999 -999
2011-08-02 12:24:23 51°19.986 2°30.068 25.6118 -999 -999 -999
2011-08-02 12:25:23 51°19.997 2°30.089 25.591 -999 -999 -999
2011-08-02 12:26:22 51°20.01 2°30.117 25.5975 -999 -999 -999
2011-08-02 12:27:23 51°20.024 2°30.153 25.6067 -999 -999 -999
2011-08-02 12:28:22 51°20.038 2°30.187 25.6086 -999 -999 -999
2011-08-02 12:29:22 51°20.052 2°30.224 25.6147 -999 -999 -999
2011-08-02 12:30:23 51°20.063 2°30.262 25.6385 -999 -999 -999
2011-08-02 12:31:23 51°20.07 2°30.303 25.6207 -999 -999 -999
2011-08-02 12:32:22 51°20.075 2°30.343 25.6063 -999 -999 -999
2011-08-02 12:33:22 51°20.076 2°30.381 25.6142 -999 -999 -999
2011-08-02 12:34:22 51°20.085 2°30.423 25.6415 -999 -999 -999
2011-08-02 12:35:22 51°20.11 2°30.502 25.7721 -999 -999 -999
2011-08-02 12:36:23 51°20.11 2°30.66 25.6862 -999 -999 -999
2011-08-02 12:37:23 51°20.106 2°30.848 25.6685 -999 -999 -999
2011-08-02 12:38:22 51°20.139 2°30.971 25.6906 -999 -999 -999
2011-08-02 12:39:22 51°20.184 2°31.006 25.6942 -999 -999 -999
2011-08-02 12:40:22 51°20.201 2°30.987 25.7041 -999 -999 -999
2011-08-02 12:41:23 51°20.199 2°31.005 25.7176 -999 -999 -999
2011-08-02 12:42:23 51°20.194 2°31.031 25.7193 -999 -999 -999
2011-08-02 12:43:23 51°20.193 2°31.044 25.7173 -999 -999 -999
2011-08-02 12:44:22 51°20.196 2°31.037 25.7183 -999 -999 -999
2011-08-02 12:45:23 51°20.201 2°31.034 25.7234 -999 -999 -999
2011-08-02 12:46:22 51°20.206 2°31.036 25.7261 -999 -999 -999
2011-08-02 12:47:22 51°20.209 2°31.034 25.7144 -999 -999 -999
2011-08-02 12:48:22 51°20.212 2°31.029 25.732 -999 -999 -999
2011-08-02 12:49:23 51°20.214 2°31.026 25.7163 -999 -999 -999
2011-08-02 12:50:23 51°20.214 2°31.025 25.7387 -999 -999 -999
2011-08-02 12:51:23 51°20.214 2°31.026 25.7195 -999 -999 -999
2011-08-02 12:52:23 51°20.214 2°31.028 25.7095 -999 -999 -999
2011-08-02 12:53:23 51°20.214 2°31.029 25.7332 -999 -999 -999
2011-08-02 12:54:23 51°20.214 2°31.029 25.7097 -999 -999 -999
2011-08-02 12:55:22 51°20.214 2°31.029 25.7 -999 -999 -999
2011-08-02 12:56:22 51°20.214 2°31.029 25.7103 -999 -999 -999
2011-08-02 12:57:22 51°20.214 2°31.028 25.7182 -999 -999 -999
2011-08-02 12:58:22 51°20.214 2°31.028 25.7153 -999 -999 -999
2011-08-02 12:59:23 51°20.214 2°31.027 25.7155 -999 -999 -999
2011-08-02 13:00:22 51°20.215 2°31.028 25.7207 -999 -999 -999
2011-08-02 13:01:23 51°20.215 2°31.028 25.7071 -999 -999 -999
2011-08-02 13:02:22 51°20.215 2°31.028 25.7332 -999 -999 -999
2011-08-02 13:03:23 51°20.215 2°31.028 25.7482 -999 -999 -999
2011-08-02 13:04:22 51°20.217 2°31.027 25.7388 -999 -999 -999
2011-08-02 13:05:22 51°20.218 2°31.025 25.7224 -999 -999 -999
2011-08-02 13:06:22 51°20.22 2°31.022 25.7204 -999 -999 -999
2011-08-02 13:07:22 51°20.22 2°31.021 25.7321 -999 -999 -999
2011-08-02 13:08:23 51°20.221 2°31.02 25.7231 -999 -999 -999
2011-08-02 13:09:22 51°20.221 2°31.019 25.7347 -999 -999 -999
2011-08-02 13:10:22 51°20.221 2°31.02 25.7187 -999 -999 -999
2011-08-02 13:11:22 51°20.22 2°31.021 25.7411 -999 -999 -999
2011-08-02 13:12:23 51°20.22 2°31.022 25.7159 -999 -999 -999
2011-08-02 13:13:22 51°20.22 2°31.023 25.7216 -999 -999 -999
2011-08-02 13:14:23 51°20.22 2°31.023 25.7085 -999 -999 -999
2011-08-02 13:15:22 51°20.22 2°31.022 25.7177 -999 -999 -999
2011-08-02 13:16:22 51°20.22 2°31.022 25.7222 -999 -999 -999
2011-08-02 13:17:22 51°20.221 2°31.022 25.7161 -999 -999 -999
2011-08-02 13:18:22 51°20.221 2°31.023 25.7063 -999 -999 -999
2011-08-02 13:19:22 51°20.22 2°31.026 25.7073 -999 -999 -999
2011-08-02 13:20:22 51°20.216 2°31.02 25.726 -999 -999 -999
2011-08-02 13:21:22 51°20.208 2°31.01 25.7365 -999 -999 -999
2011-08-02 13:22:22 51°20.202 2°31.007 25.7333 -999 -999 -999
2011-08-02 13:23:22 51°20.2 2°31.021 25.7442 -999 -999 -999
2011-08-02 13:24:22 51°20.195 2°31.037 25.7101 -999 -999 -999
2011-08-02 13:25:23 51°20.16 2°31.089 25.7216 -999 -999 -999
2011-08-02 13:26:22 51°20.074 2°31.244 25.8231 -999 -999 -999
2011-08-02 13:27:22 51°19.922 2°31.464 25.7968 -999 -999 -999
2011-08-02 13:28:23 51°19.777 2°31.729 25.8495 -999 -999 -999
2011-08-02 13:29:22 51°19.63 2°31.96 25.7717 -999 -999 -999
2011-08-02 13:30:23 51°19.48 2°32.208 25.8022 -999 -999 -999
2011-08-02 13:31:22 51°19.328 2°32.425 25.823 -999 -999 -999
2011-08-02 13:32:23 51°19.178 2°32.664 25.7885 -999 -999 -999
2011-08-02 13:33:22 51°19.026 2°32.888 25.7834 -999 -999 -999
2011-08-02 13:34:22 51°18.879 2°33.133 25.8116 -999 -999 -999
2011-08-02 13:35:22 51°18.738 2°33.385 25.7972 -999 -999 -999
2011-08-02 13:36:22 51°18.588 2°33.622 25.7991 -999 -999 -999
2011-08-02 13:37:23 51°18.441 2°33.881 25.8005 -999 -999 -999
2011-08-02 13:38:23 51°18.29 2°34.125 25.7838 -999 -999 -999
2011-08-02 13:39:22 51°18.151 2°34.38 25.8289 -999 -999 -999
2011-08-02 13:40:22 51°17.995 2°34.605 25.7722 -999 -999 -999
2011-08-02 13:41:22 51°17.849 2°34.847 25.792 -999 -999 -999
2011-08-02 13:42:22 51°17.692 2°35.08 25.7927 -999 -999 -999
2011-08-02 13:43:22 51°17.528 2°35.31 25.8031 -999 -999 -999
2011-08-02 13:44:22 51°17.37 2°35.55 25.8057 -999 -999 -999
2011-08-02 13:45:23 51°17.208 2°35.796 25.7982 -999 -999 -999
2011-08-02 13:46:22 51°17.046 2°36.012 25.7995 -999 -999 -999
2011-08-02 13:47:22 51°16.89 2°36.252 25.8177 -999 -999 -999
2011-08-02 13:48:22 51°16.727 2°36.448 25.8125 -999 -999 -999
2011-08-02 13:49:22 51°16.583 2°36.562 25.7643 -999 -999 -999
2011-08-02 13:50:22 51°16.551 2°36.695 25.7747 -999 -999 -999
2011-08-02 13:51:22 51°16.607 2°36.803 25.8792 -999 -999 -999
2011-08-02 13:52:22 51°16.652 2°36.845 25.8402 -999 -999 -999
2011-08-02 13:53:25 51°16.665 2°36.888 25.819 -999 -999 -999
2011-08-02 13:54:23 51°16.679 2°36.927 25.8495 -999 -999 -999
2011-08-02 13:55:23 51°16.695 2°36.964 25.8225 -999 -999 -999
2011-08-02 13:56:22 51°16.713 2°37 25.8254 -999 -999 -999
2011-08-02 13:57:22 51°16.731 2°37.035 25.8278 -999 -999 -999
2011-08-02 13:58:22 51°16.75 2°37.069 25.8322 -999 -999 -999
2011-08-02 13:59:22 51°16.77 2°37.102 25.8456 -999 -999 -999
2011-08-02 14:00:22 51°16.789 2°37.135 25.8318 -999 -999 -999
2011-08-02 14:01:22 51°16.808 2°37.166 25.8467 -999 -999 -999
2011-08-02 14:02:22 51°16.827 2°37.196 25.8539 -999 -999 -999
2011-08-02 14:03:22 51°16.846 2°37.226 25.8423 -999 -999 -999
2011-08-02 14:04:22 51°16.865 2°37.254 25.8503 -999 -999 -999
2011-08-02 14:05:22 51°16.884 2°37.283 25.8446 -999 -999 -999
2011-08-02 14:06:22 51°16.904 2°37.312 25.8567 -999 -999 -999
2011-08-02 14:07:22 51°16.924 2°37.341 25.856 -999 -999 -999
2011-08-02 14:08:22 51°16.946 2°37.366 25.8551 -999 -999 -999
2011-08-02 14:09:22 51°16.969 2°37.392 25.8619 -999 -999 -999
2011-08-02 14:10:22 51°16.992 2°37.419 25.8808 -999 -999 -999
2011-08-02 14:11:22 51°17.014 2°37.446 25.8663 -999 -999 -999
2011-08-02 14:12:22 51°17.045 2°37.457 25.8514 -999 -999 -999
2011-08-02 14:13:22 51°17.056 2°37.413 25.8683 -999 -999 -999
2011-08-02 14:14:22 51°16.98 2°37.367 25.9121 -999 -999 -999
2011-08-02 14:15:22 51°16.886 2°37.251 25.8963 -999 -999 -999
2011-08-02 14:16:22 51°16.795 2°37.115 25.9146 -999 -999 -999
2011-08-02 14:17:22 51°16.696 2°36.989 25.9205 -999 -999 -999
2011-08-02 14:18:22 51°16.626 2°36.886 25.9058 -999 -999 -999
2011-08-02 14:19:22 51°16.593 2°36.857 25.892 -999 -999 -999
2011-08-02 14:20:22 51°16.589 2°36.84 25.9304 -999 -999 -999
2011-08-02 14:21:22 51°16.598 2°36.832 25.9217 -999 -999 -999
2011-08-02 14:22:22 51°16.612 2°36.829 25.932 -999 -999 -999
2011-08-02 14:23:22 51°16.63 2°36.831 25.9096 -999 -999 -999
2011-08-02 14:24:22 51°16.651 2°36.837 25.9194 -999 -999 -999
2011-08-02 14:25:22 51°16.674 2°36.847 25.9164 -999 -999 -999
2011-08-02 14:26:22 51°16.698 2°36.861 25.9225 -999 -999 -999
2011-08-02 14:27:22 51°16.723 2°36.88 25.9202 -999 -999 -999
2011-08-02 14:28:22 51°16.748 2°36.902 25.9161 -999 -999 -999
2011-08-02 14:29:22 51°16.774 2°36.926 25.9183 -999 -999 -999
2011-08-02 14:30:22 51°16.798 2°36.951 25.9266 -999 -999 -999
2011-08-02 14:31:22 51°16.82 2°36.975 25.9314 -999 -999 -999
2011-08-02 14:32:22 51°16.841 2°37.001 25.9323 -999 -999 -999
2011-08-02 14:33:22 51°16.861 2°37.028 25.9255 -999 -999 -999
2011-08-02 14:34:22 51°16.877 2°37.054 25.9243 -999 -999 -999
2011-08-02 14:35:22 51°16.897 2°37.083 25.9346 -999 -999 -999
2011-08-02 14:36:22 51°16.915 2°37.112 25.9304 -999 -999 -999
2011-08-02 14:37:22 51°16.934 2°37.143 25.9447 -999 -999 -999
2011-08-02 14:38:22 51°16.954 2°37.173 25.9429 -999 -999 -999
2011-08-02 14:39:22 51°16.989 2°37.167 25.9678 -999 -999 -999
2011-08-02 14:40:23 51°17.082 2°37.155 26.0666 -999 -999 -999
2011-08-02 14:41:22 51°17.142 2°37.291 25.9566 -999 -999 -999
2011-08-02 14:42:22 51°17.054 2°37.5 25.9281 -999 -999 -999
2011-08-02 14:43:22 51°16.965 2°37.797 26.0654 -999 -999 -999
2011-08-02 14:44:22 51°16.832 2°38.062 26.0349 -999 -999 -999
2011-08-02 14:45:22 51°16.689 2°38.204 26.0052 -999 -999 -999
2011-08-02 14:46:22 51°16.643 2°38.197 25.9861 -999 -999 -999
2011-08-02 14:47:22 51°16.638 2°38.195 25.98 -999 -999 -999
2011-08-02 14:48:22 51°16.646 2°38.2 25.9809 -999 -999 -999
2011-08-02 14:49:22 51°16.653 2°38.209 25.9831 -999 -999 -999
2011-08-02 14:50:22 51°16.656 2°38.219 25.9795 -999 -999 -999
2011-08-02 14:51:22 51°16.653 2°38.237 25.9843 -999 -999 -999
2011-08-02 14:52:22 51°16.643 2°38.261 25.9954 -999 -999 -999
2011-08-02 14:53:22 51°16.631 2°38.286 25.9954 -999 -999 -999
2011-08-02 14:54:22 51°16.616 2°38.306 25.9922 -999 -999 -999
2011-08-02 14:55:22 51°16.608 2°38.308 25.9844 -999 -999 -999
2011-08-02 14:56:22 51°16.603 2°38.306 25.9886 -999 -999 -999
2011-08-02 14:57:22 51°16.599 2°38.302 25.9991 -999 -999 -999
2011-08-02 14:58:22 51°16.592 2°38.3 25.9706 -999 -999 -999
2011-08-02 14:59:22 51°16.581 2°38.302 25.9884 -999 -999 -999
2011-08-02 15:00:23 51°16.566 2°38.311 25.9871 -999 -999 -999
2011-08-02 15:01:22 51°16.549 2°38.327 25.9955 -999 -999 -999
2011-08-02 15:02:22 51°16.537 2°38.336 25.9943 -999 -999 -999
2011-08-02 15:03:22 51°16.535 2°38.334 26.0134 -999 -999 -999
2011-08-02 15:04:22 51°16.538 2°38.325 25.9799 -999 -999 -999
2011-08-02 15:05:22 51°16.511 2°38.33 25.9503 -999 -999 -999
2011-08-02 15:06:22 51°16.47 2°38.449 26.0269 -999 -999 -999
2011-08-02 15:07:22 51°16.405 2°38.694 25.9979 -999 -999 -999
2011-08-02 15:08:22 51°16.332 2°39.018 26.0288 -999 -999 -999
2011-08-02 15:09:22 51°16.256 2°39.353 26.0161 -999 -999 -999
2011-08-02 15:10:22 51°16.17 2°39.678 26.0155 -999 -999 -999
2011-08-02 15:11:22 51°16.083 2°40.002 26.0056 -999 -999 -999
2011-08-02 15:12:22 51°16.008 2°40.335 26.0386 -999 -999 -999
2011-08-02 15:13:22 51°15.933 2°40.665 26.0074 -999 -999 -999
2011-08-02 15:14:22 51°15.849 2°40.988 26.0291 -999 -999 -999
2011-08-02 15:15:22 51°15.77 2°41.311 26.0131 -999 -999 -999
2011-08-02 15:16:22 51°15.682 2°41.624 26.0243 -999 -999 -999
2011-08-02 15:17:22 51°15.567 2°41.911 25.098 -999 -999 -999
2011-08-02 15:18:22 51°15.461 2°42.212 25.2784 -999 -999 -999
2011-08-02 15:19:22 51°15.343 2°42.499 25.2632 -999 -999 -999
2011-08-02 15:20:22 51°15.238 2°42.804 25.248 -999 -999 -999
2011-08-02 15:21:22 51°15.132 2°43.109 25.2557 -999 -999 -999
2011-08-02 15:22:22 51°15.018 2°43.406 25.0314 -999 -999 -999
2011-08-02 15:23:22 51°14.997 2°43.763 25.2429 -999 -999 -999
2011-08-02 15:24:22 51°15.004 2°44.135 25.2986 -999 -999 -999
2011-08-02 15:25:22 51°15.007 2°44.504 25.3131 -999 -999 -999
2011-08-02 15:26:22 51°14.994 2°44.873 25.2447 -999 -999 -999
2011-08-02 15:27:22 51°14.98 2°45.243 25.2765 -999 -999 -999
2011-08-02 15:28:22 51°14.983 2°45.609 25.3048 -999 -999 -999
2011-08-02 15:29:22 51°14.971 2°45.971 25.3639 -999 -999 -999
2011-08-02 15:30:22 51°14.977 2°46.33 25.3941 -999 -999 -999
2011-08-02 15:31:22 51°14.965 2°46.684 25.34 -999 -999 -999
2011-08-02 15:32:22 51°14.959 2°47.038 25.387 -999 -999 -999
2011-08-02 15:33:22 51°14.955 2°47.39 25.4293 -999 -999 -999
2011-08-02 15:34:22 51°14.954 2°47.743 25.4009 -999 -999 -999
2011-08-02 15:35:22 51°14.95 2°48.096 25.3757 -999 -999 -999
2011-08-02 15:36:22 51°14.946 2°48.444 25.4105 -999 -999 -999
2011-08-02 15:37:22 51°14.94 2°48.79 25.3966 -999 -999 -999
2011-08-02 15:38:22 51°14.923 2°49.136 25.3864 -999 -999 -999
2011-08-02 15:39:22 51°14.93 2°49.486 25.4209 -999 -999 -999
2011-08-02 15:40:22 51°14.936 2°49.834 25.443 -999 -999 -999
2011-08-02 15:41:22 51°14.933 2°50.184 25.444 -999 -999 -999
2011-08-02 15:42:22 51°14.929 2°50.534 25.4262 -999 -999 -999
2011-08-02 15:43:22 51°14.937 2°50.884 25.4634 -999 -999 -999
2011-08-02 15:44:22 51°14.932 2°51.18 25.4345 -999 -999 -999
2011-08-02 15:45:22 51°14.93 2°51.458 25.4276 -999 -999 -999
2011-08-02 15:46:22 51°14.939 2°51.719 25.4302 -999 -999 -999
2011-08-02 15:47:23 51°14.944 2°51.948 25.4481 -999 -999 -999
2011-08-02 15:48:22 51°14.943 2°52.148 25.4636 -999 -999 -999
2011-08-02 15:49:23 51°14.942 2°52.32 25.4808 -999 -999 -999
2011-08-02 15:50:22 51°14.946 2°52.475 25.5466 -999 -999 -999
2011-08-02 15:51:22 51°14.951 2°52.627 25.5643 -999 -999 -999
2011-08-02 15:52:22 51°14.953 2°52.768 25.585 -999 -999 -999
2011-08-02 15:53:22 51°14.956 2°52.905 25.6186 -999 -999 -999
2011-08-02 15:54:22 51°14.958 2°53.033 25.6309 -999 -999 -999
2011-08-02 15:55:22 51°14.962 2°53.147 25.6328 -999 -999 -999
2011-08-02 15:56:23 51°14.967 2°53.238 25.5984 -999 -999 -999
2011-08-02 15:57:22 51°14.976 2°53.307 25.6052 -999 -999 -999
2011-08-02 15:58:22 51°14.979 2°53.368 25.6255 -999 -999 -999
2011-08-02 15:59:22 51°14.977 2°53.443 25.6071 -999 -999 -999
2011-08-02 16:00:22 51°14.96 2°53.554 25.5964 -999 -999 -999
2011-08-02 16:01:22 51°14.931 2°53.712 25.5961 -999 -999 -999
2011-08-02 16:02:23 51°14.883 2°53.93 25.5996 -999 -999 -999
2011-08-02 16:03:22 51°14.828 2°54.182 25.6293 -999 -999 -999
2011-08-02 16:04:22 51°14.762 2°54.447 25.5597 -999 -999 -999
2011-08-02 16:05:22 51°14.687 2°54.717 25.5643 -999 -999 -999
2011-08-02 16:06:22 51°14.584 2°54.971 25.6154 -999 -999 -999
2011-08-02 16:07:22 51°14.43 2°55.146 25.5771 -999 -999 -999
2011-08-02 16:08:22 51°14.269 2°55.299 25.5678 -999 -999 -999
2011-08-02 16:09:23 51°14.114 2°55.419 25.6044 -999 -999 -999
2011-08-02 16:10:22 51°13.996 2°55.505 25.596 -999 -999 -999
2011-08-02 16:11:23 51°13.883 2°55.586 25.6319 -999 -999 -999
2011-08-02 16:12:23 51°13.781 2°55.67 25.6297 -999 -999 -999
2011-08-02 16:13:22 51°13.708 2°55.781 25.6082 -999 -999 -999
2011-08-02 16:14:22 51°13.655 2°55.894 25.6203 -999 -999 -999
2011-08-02 16:15:23 51°13.626 2°55.99 25.6158 -999 -999 -999
2011-08-02 16:16:22 51°13.611 2°56.058 25.6029 -999 -999 -999